Amador Station, California
Current Conditions -  °F | °C
As of 12:55 PM on Tuesday 25 Nov 2014 (Local Time) from KPVF Reporting Station
Clear Clear  
Wind Chill: 15°   Ceiling: Unl
Heat Index: 15°   Visibility: 10mi
Dew Point:   Wind: 0mph
Humidity: 39%   Direction: NA
Pressure: 30.44"   Gusts: NA
Location:  38.5644°N, 120.32°W
Report Text: KPVF 252055Z AUTO 00000KT 10SM CLR 15/01 A3044 RMK AO1
Loading
Personal Weather Stations






























Interactive Weather Map New forecast layout! Learn more

10-Day Weather Forecast

Advertisements
Track Severe Weather on mobile